createdAt,value
2023-04-30T00:00:08.620Z,79.5
2023-04-30T00:01:08.659Z,79.5
2023-04-30T00:02:08.623Z,79.5
2023-04-30T00:03:08.761Z,79.5
2023-04-30T00:04:08.664Z,79.5
2023-04-30T00:05:08.578Z,79.5
2023-04-30T00:06:08.711Z,79.5
2023-04-30T00:07:08.638Z,79.5
2023-04-30T00:08:08.610Z,79.5
2023-04-30T00:09:08.596Z,79.5
2023-04-30T00:10:08.591Z,79.5
2023-04-30T00:11:08.594Z,79.5
2023-04-30T00:12:08.615Z,79.5
2023-04-30T00:13:08.602Z,79.5
2023-04-30T00:14:08.597Z,79.5
2023-04-30T00:15:08.658Z,79.5
2023-04-30T00:16:08.711Z,79.5
2023-04-30T00:17:08.685Z,79.5
2023-04-30T00:18:08.686Z,79.5
2023-04-30T00:19:08.674Z,79.5
2023-04-30T00:20:08.662Z,79.5
2023-04-30T00:21:08.623Z,79.5
2023-04-30T00:22:08.612Z,79.5
2023-04-30T00:23:08.664Z,79.5
2023-04-30T00:24:08.617Z,79.5
2023-04-30T00:25:08.657Z,79.5
2023-04-30T00:26:08.652Z,79.5
2023-04-30T00:27:08.617Z,79.5
2023-04-30T00:28:08.745Z,79.5
2023-04-30T00:29:08.667Z,79.5
2023-04-30T00:30:08.639Z,79.5
2023-04-30T00:31:08.653Z,79.5
2023-04-30T00:32:08.695Z,79.5
2023-04-30T00:33:08.796Z,79.5
2023-04-30T00:34:08.663Z,79.5
2023-04-30T00:35:08.699Z,79.5
2023-04-30T00:36:08.657Z,79.5
2023-04-30T00:37:08.687Z,79.6
2023-04-30T00:38:08.683Z,79.6
2023-04-30T00:39:08.706Z,79.6
2023-04-30T00:40:08.698Z,79.6
2023-04-30T00:41:08.672Z,79.6
2023-04-30T00:42:08.678Z,79.6
2023-04-30T00:43:08.725Z,79.6
2023-04-30T00:44:08.725Z,79.6
2023-04-30T00:45:08.708Z,79.6
2023-04-30T00:46:08.698Z,79.6
2023-04-30T00:47:08.691Z,79.6
2023-04-30T00:48:08.684Z,79.6
2023-04-30T00:49:08.766Z,79.6
2023-04-30T00:50:08.703Z,79.6
2023-04-30T00:51:08.691Z,79.6
2023-04-30T00:52:08.722Z,79.6
2023-04-30T00:53:08.705Z,79.6
2023-04-30T00:54:08.758Z,79.8
2023-04-30T00:55:08.723Z,79.8
2023-04-30T00:56:08.720Z,79.8
2023-04-30T00:57:08.704Z,79.8
2023-04-30T00:58:08.692Z,79.8
2023-04-30T00:59:08.740Z,79.8
2023-04-30T01:00:08.727Z,79.8
2023-04-30T01:01:08.769Z,79.8
2023-04-30T01:02:08.760Z,79.8
2023-04-30T01:03:08.797Z,79.8
2023-04-30T01:04:08.715Z,79.8
2023-04-30T01:05:08.724Z,79.8
2023-04-30T01:06:08.780Z,79.8
2023-04-30T01:07:08.738Z,79.8
2023-04-30T01:08:08.719Z,79.8
2023-04-30T01:09:08.733Z,79.8
2023-04-30T01:10:08.775Z,79.8
2023-04-30T01:11:08.713Z,79.8
2023-04-30T01:12:08.719Z,79.8
2023-04-30T01:13:08.787Z,79.8
2023-04-30T01:14:08.738Z,79.8
2023-04-30T01:15:08.752Z,79.8
2023-04-30T01:16:08.741Z,79.8
2023-04-30T01:17:08.727Z,79.8
2023-04-30T01:18:08.782Z,79.8
2023-04-30T01:19:08.850Z,79.8
2023-04-30T01:20:08.740Z,79.8
2023-04-30T01:21:08.697Z,79.8
2023-04-30T01:22:08.729Z,80.7
2023-04-30T01:23:08.740Z,80.7
2023-04-30T01:24:08.740Z,80.7
2023-04-30T01:25:08.740Z,80.7
2023-04-30T01:26:08.748Z,80.7
2023-04-30T01:27:08.748Z,80.7
2023-04-30T01:28:08.755Z,80.7
2023-04-30T01:29:08.799Z,80.7
2023-04-30T01:30:08.780Z,80.8
2023-04-30T01:31:08.767Z,80.8
2023-04-30T01:32:08.774Z,80.8
2023-04-30T01:33:08.904Z,80.8
2023-04-30T01:34:08.751Z,80.8
2023-04-30T01:35:08.767Z,80.8
2023-04-30T01:36:08.779Z,80.8
2023-04-30T01:37:08.762Z,80.8
2023-04-30T01:38:08.753Z,80.8
2023-04-30T01:39:08.748Z,80.8
2023-04-30T01:40:08.753Z,80.8
2023-04-30T01:41:08.775Z,80.8
2023-04-30T01:42:08.814Z,80.8
2023-04-30T01:43:08.810Z,80.8
2023-04-30T01:44:08.761Z,80.8
2023-04-30T01:45:08.759Z,80.8
2023-04-30T01:46:08.866Z,80.8
2023-04-30T01:47:08.832Z,80.8
2023-04-30T01:48:08.778Z,80.8
2023-04-30T01:49:08.771Z,80.8
2023-04-30T01:50:08.790Z,80.8
2023-04-30T01:51:08.783Z,80.8
2023-04-30T01:52:08.768Z,80.8
2023-04-30T01:53:08.800Z,80.8
2023-04-30T01:54:08.835Z,80.8
2023-04-30T01:55:08.822Z,80.8
2023-04-30T01:56:08.790Z,80.8
2023-04-30T01:57:08.793Z,80.8
2023-04-30T01:58:08.815Z,80.8
2023-04-30T01:59:08.776Z,80.8
2023-04-30T02:00:08.817Z,80.8
2023-04-30T02:01:08.779Z,80.8
2023-04-30T02:02:08.820Z,80.8
2023-04-30T02:03:08.850Z,80.8
2023-04-30T02:04:08.769Z,80.8
2023-04-30T02:05:08.798Z,80.8
2023-04-30T02:06:08.866Z,80.8
2023-04-30T02:07:08.808Z,80.8
2023-04-30T02:08:08.797Z,80.8
2023-04-30T02:09:08.810Z,80.8
2023-04-30T02:10:08.803Z,80.8
2023-04-30T02:11:08.831Z,80.8
2023-04-30T02:12:08.780Z,80.8
2023-04-30T02:13:08.855Z,80.8
2023-04-30T02:14:08.809Z,80.8
2023-04-30T02:15:08.835Z,80.8
2023-04-30T02:16:08.859Z,80.8
2023-04-30T02:17:08.818Z,80.8
2023-04-30T02:18:08.898Z,80.8
2023-04-30T02:19:08.847Z,80.8
2023-04-30T02:20:08.832Z,80.8
2023-04-30T02:21:08.906Z,81.7
2023-04-30T02:22:08.831Z,81.7
2023-04-30T02:23:08.873Z,81.7
2023-04-30T02:24:08.820Z,81.7
2023-04-30T02:25:08.839Z,81.7
2023-04-30T02:26:08.832Z,81.7
2023-04-30T02:27:08.849Z,81.7
2023-04-30T02:28:08.899Z,81.7
2023-04-30T02:29:08.914Z,81.7
2023-04-30T02:30:08.868Z,81.7
2023-04-30T02:31:08.961Z,81.7
2023-04-30T02:32:08.860Z,81.7
2023-04-30T02:33:08.912Z,81.7
2023-04-30T02:34:08.863Z,81.7
2023-04-30T02:35:08.864Z,81.7
2023-04-30T02:36:08.872Z,81.7
2023-04-30T02:37:08.862Z,81.7
2023-04-30T02:38:08.844Z,81.1
2023-04-30T02:39:08.848Z,81.1
2023-04-30T02:40:08.927Z,81.1
2023-04-30T02:41:08.896Z,81.1
2023-04-30T02:42:10.039Z,81.1
2023-04-30T02:43:08.894Z,81.1
2023-04-30T02:44:08.864Z,81.1
2023-04-30T02:45:08.945Z,81.1
2023-04-30T02:46:08.953Z,81.1
2023-04-30T02:47:08.892Z,81.1
2023-04-30T02:48:08.923Z,81.1
2023-04-30T02:49:08.916Z,81.1
2023-04-30T02:50:08.877Z,81.1
2023-04-30T02:51:08.870Z,81.1
2023-04-30T02:52:08.954Z,81.1
2023-04-30T02:53:08.909Z,81.1
2023-04-30T02:54:08.943Z,81.1
2023-04-30T02:55:08.920Z,81.1
2023-04-30T02:56:08.904Z,81.1
2023-04-30T02:57:08.956Z,81.1
2023-04-30T02:58:08.929Z,81.1
2023-04-30T02:59:08.965Z,81.1
2023-04-30T03:00:09.010Z,81.1
2023-04-30T03:01:08.956Z,81.1
2023-04-30T03:02:08.977Z,81.1
2023-04-30T03:03:09.209Z,81.1
2023-04-30T03:04:08.907Z,81.1
2023-04-30T03:05:08.955Z,81.1
2023-04-30T03:06:09.018Z,81.1
2023-04-30T03:07:08.912Z,81.1
2023-04-30T03:08:08.965Z,81.1
2023-04-30T03:09:09.034Z,81.1
2023-04-30T03:10:08.963Z,81.1
2023-04-30T03:11:09.011Z,81.1
2023-04-30T03:12:08.956Z,81.1
2023-04-30T03:13:08.967Z,81.1
2023-04-30T03:14:08.982Z,81.1
2023-04-30T03:15:09.001Z,80.7
2023-04-30T03:16:09.046Z,80.7
2023-04-30T03:17:08.989Z,80.7
2023-04-30T03:18:09.068Z,80.7
2023-04-30T03:19:09.011Z,80.7
2023-04-30T03:20:09.020Z,80.7
2023-04-30T03:21:09.039Z,80.7
2023-04-30T03:22:09.024Z,80.7
2023-04-30T03:23:09.019Z,80.7
2023-04-30T03:24:09.012Z,80.7
2023-04-30T03:25:09.048Z,80.7
2023-04-30T03:26:09.032Z,80.7
2023-04-30T03:27:09.047Z,80.7
2023-04-30T03:28:09.028Z,80.7
2023-04-30T03:29:09.041Z,80.7
2023-04-30T03:30:09.066Z,80.7
2023-04-30T03:31:09.104Z,80.7
2023-04-30T03:32:09.040Z,80.7
2023-04-30T03:33:09.070Z,80.7
2023-04-30T03:34:09.043Z,80.7
2023-04-30T03:35:09.041Z,80.7
2023-04-30T03:36:09.035Z,80.7
2023-04-30T03:37:09.048Z,80.7
2023-04-30T03:38:09.054Z,80.7
2023-04-30T03:39:09.082Z,80.7
2023-04-30T03:40:09.039Z,80.7
2023-04-30T03:41:09.037Z,79.8
2023-04-30T03:42:09.068Z,79.8
2023-04-30T03:43:09.056Z,79.8
2023-04-30T03:44:09.000Z,79.8
2023-04-30T03:45:09.052Z,79.8
2023-04-30T03:46:09.004Z,79.8
2023-04-30T03:47:09.041Z,79.8
2023-04-30T03:48:09.118Z,79.8
2023-04-30T03:49:09.056Z,79.8
2023-04-30T03:50:09.125Z,79.8
2023-04-30T03:51:09.038Z,79.8
2023-04-30T03:52:09.004Z,79.8
2023-04-30T03:53:09.041Z,79.8
2023-04-30T03:54:09.066Z,79.8
2023-04-30T03:55:09.038Z,79.8
2023-04-30T03:56:09.099Z,79.8
2023-04-30T03:57:09.011Z,79.8
2023-04-30T03:58:09.151Z,79.8
2023-04-30T03:59:09.068Z,79.8
2023-04-30T04:00:09.019Z,79.8
2023-04-30T04:01:09.043Z,79.8
2023-04-30T04:02:09.115Z,79.8
2023-04-30T04:03:09.107Z,79.8
2023-04-30T04:04:09.136Z,79.8
2023-04-30T04:05:09.045Z,79.8
2023-04-30T04:06:09.103Z,78.8
2023-04-30T04:07:09.350Z,78.8
2023-04-30T04:08:09.049Z,78.8
2023-04-30T04:09:09.124Z,78.8
2023-04-30T04:10:09.069Z,78.7
2023-04-30T04:11:09.086Z,78.7
2023-04-30T04:12:09.081Z,78.7
2023-04-30T04:13:09.124Z,78.7
2023-04-30T04:14:09.036Z,78.7
2023-04-30T04:15:09.076Z,78.7
2023-04-30T04:16:09.121Z,78.7
2023-04-30T04:17:09.085Z,78.7
2023-04-30T04:18:09.130Z,78.7
2023-04-30T04:19:09.082Z,78.7
2023-04-30T04:20:09.555Z,78.7
2023-04-30T04:21:09.093Z,78.7
2023-04-30T04:22:09.118Z,78.7
2023-04-30T04:23:09.140Z,78.7
2023-04-30T04:24:09.107Z,78.7
2023-04-30T04:25:09.148Z,78.7
2023-04-30T04:26:09.119Z,78.7
2023-04-30T04:27:09.118Z,78.7
2023-04-30T04:28:09.117Z,78.7
2023-04-30T04:29:09.103Z,78.7
2023-04-30T04:30:09.089Z,78.7
2023-04-30T04:31:09.133Z,78.7
2023-04-30T04:32:09.114Z,76.9
2023-04-30T04:33:09.126Z,76.9
2023-04-30T04:34:09.120Z,76.9
2023-04-30T04:35:09.141Z,76.9
2023-04-30T04:36:09.178Z,76.9
2023-04-30T04:37:09.128Z,76.9
2023-04-30T04:38:09.112Z,76.9
2023-04-30T04:39:09.209Z,76.9
2023-04-30T04:40:09.144Z,76.9
2023-04-30T04:41:09.185Z,76.9
2023-04-30T04:42:09.184Z,76.3
2023-04-30T04:43:09.155Z,76.3
2023-04-30T04:44:09.143Z,76.3
2023-04-30T04:45:09.180Z,76.3
2023-04-30T04:46:10.103Z,76.3
2023-04-30T04:47:09.185Z,76.3
2023-04-30T04:48:09.196Z,76.3
2023-04-30T04:49:09.183Z,76.3
2023-04-30T04:50:09.240Z,76.3
2023-04-30T04:51:09.204Z,76.3
2023-04-30T04:52:09.160Z,76.3
2023-04-30T04:53:09.211Z,76.3
2023-04-30T04:54:09.176Z,76.3
2023-04-30T04:55:09.248Z,76.3
2023-04-30T04:56:09.199Z,76.3
2023-04-30T04:57:09.215Z,76.3
2023-04-30T04:58:09.222Z,76.3
2023-04-30T04:59:09.212Z,76.3
2023-04-30T05:00:09.222Z,76.3
2023-04-30T05:01:09.251Z,76.3
2023-04-30T05:02:09.228Z,74.1
2023-04-30T05:03:09.404Z,74.1
2023-04-30T05:04:09.230Z,74.1
2023-04-30T05:05:09.311Z,74.1
2023-04-30T05:06:09.281Z,74.1
2023-04-30T05:07:09.235Z,74.1
2023-04-30T05:08:09.208Z,74.1
2023-04-30T05:09:09.215Z,74.1
2023-04-30T05:10:09.218Z,74.1
2023-04-30T05:11:09.232Z,74.1
2023-04-30T05:12:09.220Z,74.1
2023-04-30T05:13:09.222Z,74.1
2023-04-30T05:14:09.222Z,74.1
2023-04-30T05:15:09.241Z,74.1
2023-04-30T05:16:09.297Z,74.1
2023-04-30T05:17:09.261Z,74.1
2023-04-30T05:18:09.375Z,74.1
2023-04-30T05:19:09.232Z,74.1
2023-04-30T05:20:09.243Z,74.1
2023-04-30T05:21:09.229Z,74.1
2023-04-30T05:22:09.249Z,74.1
2023-04-30T05:23:09.292Z,74.1
2023-04-30T05:24:09.242Z,74.1
2023-04-30T05:25:09.312Z,74.1
2023-04-30T05:26:09.277Z,74.1
2023-04-30T05:27:09.322Z,74.1
2023-04-30T05:28:09.282Z,74.1
2023-04-30T05:29:09.268Z,74.1
2023-04-30T05:30:09.289Z,74.1
2023-04-30T05:31:09.270Z,74.1
2023-04-30T05:32:09.400Z,74.1
2023-04-30T05:33:09.429Z,74.1
2023-04-30T05:34:09.290Z,74.1
2023-04-30T05:35:09.293Z,74.1
2023-04-30T05:36:09.274Z,74.1
2023-04-30T05:37:09.279Z,74.1
2023-04-30T05:38:09.312Z,74.1
2023-04-30T05:39:09.306Z,74.1
2023-04-30T05:40:09.282Z,73.5
2023-04-30T05:41:09.288Z,73.5
2023-04-30T05:42:09.282Z,73.5
2023-04-30T05:43:09.344Z,73.5
2023-04-30T05:44:09.296Z,71.8
2023-04-30T05:45:09.353Z,71.8
2023-04-30T05:46:09.323Z,71.8
2023-04-30T05:47:09.298Z,71.8
2023-04-30T05:48:09.336Z,71.8
2023-04-30T05:49:09.321Z,69.9
2023-04-30T05:50:09.329Z,69.9
2023-04-30T05:51:09.304Z,69.9
2023-04-30T05:52:09.306Z,69.9
2023-04-30T05:53:09.303Z,69.9
2023-04-30T05:54:09.345Z,67.7
2023-04-30T05:55:09.273Z,67.5
2023-04-30T05:56:09.320Z,67.5
2023-04-30T05:57:09.331Z,67.5
2023-04-30T05:58:09.314Z,67.5
2023-04-30T05:59:09.323Z,67.1
2023-04-30T06:00:09.333Z,67.1
2023-04-30T06:01:09.321Z,67.1
2023-04-30T06:02:09.468Z,67.1
2023-04-30T06:03:09.335Z,67.1
2023-04-30T06:04:09.314Z,67.1
2023-04-30T06:05:09.386Z,67.1
2023-04-30T06:06:09.436Z,67.1
2023-04-30T06:07:09.336Z,67.1
2023-04-30T06:08:09.311Z,67.1
2023-04-30T06:09:09.305Z,67.1
2023-04-30T06:10:09.312Z,67.1
2023-04-30T06:11:09.362Z,64.4
2023-04-30T06:12:09.284Z,64.4
2023-04-30T06:13:09.343Z,64.4
2023-04-30T06:14:09.348Z,64.4
2023-04-30T06:15:09.328Z,64.4
2023-04-30T06:16:09.376Z,64.4
2023-04-30T06:17:09.288Z,64.4
2023-04-30T06:18:09.324Z,64.4
2023-04-30T06:19:09.317Z,64.4
2023-04-30T06:20:09.353Z,64.4
2023-04-30T06:21:09.323Z,64.4
2023-04-30T06:22:09.329Z,64.4
2023-04-30T06:23:09.348Z,64.4
2023-04-30T06:24:09.346Z,64.4
2023-04-30T06:25:09.384Z,64.4
2023-04-30T06:26:09.379Z,64.4
2023-04-30T06:27:09.358Z,64.4
2023-04-30T06:28:09.358Z,64.4
2023-04-30T06:29:09.347Z,64.4
2023-04-30T06:30:09.353Z,64.4
2023-04-30T06:31:09.334Z,64.4
2023-04-30T06:32:09.393Z,64.4
2023-04-30T06:33:09.386Z,64.4
2023-04-30T06:34:09.371Z,64.4
2023-04-30T06:35:09.377Z,64.4
2023-04-30T06:36:09.334Z,64.4
2023-04-30T06:37:09.382Z,64.4
2023-04-30T06:38:09.346Z,64.4
2023-04-30T06:39:09.389Z,62.3
2023-04-30T06:40:09.324Z,62.3
2023-04-30T06:41:09.358Z,62.3
2023-04-30T06:42:09.379Z,62.3
2023-04-30T06:43:09.380Z,62.3
2023-04-30T06:44:09.377Z,62.3
2023-04-30T06:45:09.351Z,62.3
2023-04-30T06:46:09.426Z,60.6
2023-04-30T06:47:09.346Z,60.6
2023-04-30T06:48:09.367Z,60.6
2023-04-30T06:49:09.416Z,60
2023-04-30T06:50:09.380Z,60
2023-04-30T06:51:10.848Z,60
2023-04-30T06:52:09.380Z,60
2023-04-30T06:53:09.363Z,60
2023-04-30T06:54:09.369Z,60
2023-04-30T06:55:09.450Z,60
2023-04-30T06:56:09.384Z,60
2023-04-30T06:57:09.374Z,60
2023-04-30T06:58:09.394Z,60
2023-04-30T06:59:09.377Z,60
2023-04-30T07:00:09.391Z,60
2023-04-30T07:01:09.487Z,60
2023-04-30T07:02:09.418Z,60
2023-04-30T07:03:09.573Z,60
2023-04-30T07:04:09.415Z,60
2023-04-30T07:05:09.451Z,58.6
2023-04-30T07:06:09.486Z,58.6
2023-04-30T07:07:09.447Z,58.6
2023-04-30T07:08:10.394Z,58.6
2023-04-30T07:09:09.404Z,58.6
2023-04-30T07:10:09.414Z,58.6
2023-04-30T07:11:09.558Z,58.6
2023-04-30T07:12:09.440Z,58.6
2023-04-30T07:13:09.430Z,58.6
2023-04-30T07:14:09.437Z,58.6
2023-04-30T07:15:09.427Z,58.6
2023-04-30T07:16:09.531Z,56.4
2023-04-30T07:17:09.469Z,56.4
2023-04-30T07:18:09.439Z,56.4
2023-04-30T07:19:09.438Z,56.4
2023-04-30T07:20:09.451Z,56.4
2023-04-30T07:21:09.453Z,56.4
2023-04-30T07:22:09.499Z,56.4
2023-04-30T07:23:09.455Z,56.4
2023-04-30T07:24:09.424Z,56.4
2023-04-30T07:25:09.464Z,56.4
2023-04-30T07:26:09.454Z,56.4
2023-04-30T07:27:09.437Z,56.4
2023-04-30T07:28:09.546Z,56.4
2023-04-30T07:29:09.465Z,56.4
2023-04-30T07:30:09.440Z,56.4
2023-04-30T07:31:09.545Z,56.4
2023-04-30T07:32:09.462Z,56.4
2023-04-30T07:33:09.495Z,56.4
2023-04-30T07:34:09.461Z,56.3
2023-04-30T07:35:09.464Z,56.3
2023-04-30T07:36:09.472Z,56.3
2023-04-30T07:37:09.478Z,56.3
2023-04-30T07:38:09.493Z,56.3
2023-04-30T07:39:09.511Z,56.3
2023-04-30T07:40:09.493Z,56.3
2023-04-30T07:41:09.521Z,56.3
2023-04-30T07:42:09.447Z,56.3
2023-04-30T07:43:09.479Z,55.7
2023-04-30T07:44:09.489Z,55.7
2023-04-30T07:45:09.435Z,55.7
2023-04-30T07:46:09.525Z,55.7
2023-04-30T07:47:09.489Z,55.7
2023-04-30T07:48:09.524Z,55.7
2023-04-30T07:49:09.533Z,55.7
2023-04-30T07:50:09.484Z,55.7
2023-04-30T07:51:09.454Z,55.7
2023-04-30T07:52:09.486Z,55.7
2023-04-30T07:53:09.538Z,55.7
2023-04-30T07:54:09.447Z,55.7
2023-04-30T07:55:09.489Z,55.7
2023-04-30T07:56:09.509Z,55.7
2023-04-30T07:57:09.499Z,55.7
2023-04-30T07:58:09.492Z,55.7
2023-04-30T07:59:09.612Z,55.7
2023-04-30T08:00:09.552Z,57.7
2023-04-30T08:01:09.504Z,57.7
2023-04-30T08:02:09.565Z,57.7
2023-04-30T08:03:09.549Z,57.7
2023-04-30T08:04:09.617Z,57.7
2023-04-30T08:05:09.514Z,57.7
2023-04-30T08:06:09.582Z,57.7
2023-04-30T08:07:09.500Z,57.7
2023-04-30T08:08:09.511Z,57.7
2023-04-30T08:09:09.504Z,57.7
2023-04-30T08:10:09.517Z,57.7
2023-04-30T08:11:09.505Z,57.7
2023-04-30T08:12:09.517Z,57.7
2023-04-30T08:13:09.522Z,57.7
2023-04-30T08:14:09.509Z,57.7
2023-04-30T08:15:09.536Z,57.7
2023-04-30T08:16:09.548Z,57.7
2023-04-30T08:17:09.501Z,57.7
2023-04-30T08:18:09.595Z,57.7
2023-04-30T08:19:09.567Z,57.7
2023-04-30T08:20:09.560Z,57.7
2023-04-30T08:21:09.555Z,57.7
2023-04-30T08:22:09.530Z,57.7
2023-04-30T08:23:09.573Z,57.7
2023-04-30T08:24:09.561Z,57.7
2023-04-30T08:25:09.525Z,57.7
2023-04-30T08:26:09.528Z,57.7
2023-04-30T08:27:09.722Z,57.7
2023-04-30T08:28:09.560Z,56.6
2023-04-30T08:29:09.546Z,56.6
2023-04-30T08:30:09.561Z,56.6
2023-04-30T08:31:09.590Z,56.6
2023-04-30T08:32:09.569Z,56.6
2023-04-30T08:33:09.578Z,56.6
2023-04-30T08:34:09.561Z,57.4
2023-04-30T08:35:09.601Z,57.4
2023-04-30T08:36:09.553Z,57.4
2023-04-30T08:37:09.558Z,57.4
2023-04-30T08:38:09.600Z,56.4
2023-04-30T08:39:09.579Z,56.4
2023-04-30T08:40:09.789Z,56.4
2023-04-30T08:41:09.563Z,56.4
2023-04-30T08:42:09.579Z,56.4
2023-04-30T08:43:09.567Z,56.4
2023-04-30T08:44:09.562Z,56.4
2023-04-30T08:45:09.556Z,56.4
2023-04-30T08:46:09.674Z,56.4
2023-04-30T08:47:09.553Z,56.4
2023-04-30T08:48:09.544Z,56.4
2023-04-30T08:49:09.622Z,56.4
2023-04-30T08:50:09.559Z,56.4
2023-04-30T08:51:09.561Z,56.4
2023-04-30T08:52:09.597Z,56.4
2023-04-30T08:53:09.732Z,56.4
2023-04-30T08:54:09.556Z,57.6
2023-04-30T08:55:09.565Z,57.6
2023-04-30T08:56:09.580Z,57.6
2023-04-30T08:57:09.630Z,57.6
2023-04-30T08:58:09.563Z,57.6
2023-04-30T08:59:09.576Z,57.6
2023-04-30T09:00:09.601Z,57.6
2023-04-30T09:01:09.706Z,57.6
2023-04-30T09:02:09.759Z,57.6
2023-04-30T09:03:09.697Z,57.6
2023-04-30T09:04:09.727Z,57.6
2023-04-30T09:05:09.555Z,57.6
2023-04-30T09:06:09.627Z,57.6
2023-04-30T09:07:09.789Z,57.6
2023-04-30T09:08:09.590Z,57.6
2023-04-30T09:09:09.697Z,57.6
2023-04-30T09:10:09.672Z,57.6
2023-04-30T09:11:09.598Z,57.6
2023-04-30T09:12:09.586Z,57.6
2023-04-30T09:13:09.609Z,57.6
2023-04-30T09:14:09.613Z,57.6
2023-04-30T09:15:09.598Z,57.6
2023-04-30T09:16:09.632Z,55.2
2023-04-30T09:17:09.618Z,55.2
2023-04-30T09:18:09.633Z,55.2
2023-04-30T09:19:09.594Z,55.2
2023-04-30T09:20:09.655Z,55.2
2023-04-30T09:21:09.582Z,55.2
2023-04-30T09:22:09.604Z,55.2
2023-04-30T09:23:09.776Z,55.2
2023-04-30T09:24:09.589Z,55.2
2023-04-30T09:25:09.663Z,56.4
2023-04-30T09:26:09.593Z,56.4
2023-04-30T09:27:09.611Z,56.4
2023-04-30T09:28:09.633Z,56.4
2023-04-30T09:29:09.621Z,56.4
2023-04-30T09:30:09.628Z,56.4
2023-04-30T09:31:09.704Z,56.4
2023-04-30T09:32:09.635Z,56.4
2023-04-30T09:33:12.011Z,56.4
2023-04-30T09:34:09.631Z,56.4
2023-04-30T09:35:09.609Z,56.4
2023-04-30T09:36:09.610Z,56.4
2023-04-30T09:37:09.629Z,56.4
2023-04-30T09:38:09.623Z,56.4
2023-04-30T09:39:11.405Z,56.4
2023-04-30T09:40:09.687Z,56.4
2023-04-30T09:41:09.655Z,56.4
2023-04-30T09:42:09.666Z,56.4
2023-04-30T09:43:09.625Z,56.4
2023-04-30T09:44:09.634Z,56.4
2023-04-30T09:45:09.644Z,55.9
2023-04-30T09:46:09.631Z,55.9
2023-04-30T09:47:09.708Z,55.9
2023-04-30T09:48:17.084Z,55.9
2023-04-30T09:49:09.636Z,55.9
2023-04-30T09:50:09.644Z,55.9
2023-04-30T09:51:09.664Z,55.9
2023-04-30T09:52:09.656Z,55.9
2023-04-30T09:53:09.644Z,55.9
2023-04-30T09:54:09.675Z,55.9
2023-04-30T09:55:09.679Z,55.9
2023-04-30T09:56:09.636Z,55.9
2023-04-30T09:57:09.682Z,55.9
2023-04-30T09:58:09.608Z,55.9
2023-04-30T09:59:09.653Z,55.9
2023-04-30T10:00:09.650Z,55.9
2023-04-30T10:01:09.675Z,55.9
2023-04-30T10:02:09.660Z,57.8
2023-04-30T10:03:09.728Z,57.8
2023-04-30T10:04:09.912Z,57.8
2023-04-30T10:05:09.668Z,57.8
2023-04-30T10:06:09.669Z,57.8
2023-04-30T10:07:09.638Z,57.8
2023-04-30T10:08:09.646Z,57.8
2023-04-30T10:09:09.701Z,57.8
2023-04-30T10:10:09.721Z,57.8
2023-04-30T10:11:09.654Z,60
2023-04-30T10:12:09.664Z,60
2023-04-30T10:13:09.669Z,60
2023-04-30T10:14:09.647Z,60
2023-04-30T10:15:09.679Z,60
2023-04-30T10:16:09.731Z,60
2023-04-30T10:17:09.683Z,60
2023-04-30T10:18:09.692Z,60
2023-04-30T10:19:09.663Z,60
2023-04-30T10:20:09.817Z,60
2023-04-30T10:21:09.711Z,57.6
2023-04-30T10:22:09.672Z,57.6
2023-04-30T10:23:09.662Z,57.6
2023-04-30T10:24:09.680Z,57.6
2023-04-30T10:25:09.720Z,57.6
2023-04-30T10:26:09.662Z,57.6
2023-04-30T10:27:09.724Z,57.6
2023-04-30T10:28:09.667Z,57.6
2023-04-30T10:29:09.714Z,57.6
2023-04-30T10:30:09.682Z,57.6
2023-04-30T10:31:09.684Z,57.6
2023-04-30T10:32:09.705Z,57.6
2023-04-30T10:33:09.744Z,57.6
2023-04-30T10:34:09.718Z,57.6
2023-04-30T10:35:09.669Z,57.6
2023-04-30T10:36:09.729Z,57.6
2023-04-30T10:37:09.674Z,57.6
2023-04-30T10:38:09.675Z,57.6
2023-04-30T10:39:09.691Z,57.6
2023-04-30T10:40:09.771Z,57.6
2023-04-30T10:41:09.722Z,57.6
2023-04-30T10:42:09.672Z,57.6
2023-04-30T10:43:09.697Z,57.6
2023-04-30T10:44:09.694Z,57.6
2023-04-30T10:45:09.652Z,57.6
2023-04-30T10:46:09.746Z,57.6
2023-04-30T10:47:09.679Z,57.6
2023-04-30T10:48:09.765Z,57.6
2023-04-30T10:49:09.652Z,57.6
2023-04-30T10:50:09.685Z,57.6
2023-04-30T10:51:09.726Z,57.6
2023-04-30T10:52:09.703Z,57.6
2023-04-30T10:53:09.737Z,57.6
2023-04-30T10:54:09.682Z,57.6
2023-04-30T10:55:09.710Z,57.6
2023-04-30T10:56:09.936Z,57.6
2023-04-30T10:57:09.695Z,57.6
2023-04-30T10:58:09.744Z,57.6
2023-04-30T10:59:09.692Z,57.6
2023-04-30T11:00:09.708Z,56.7
2023-04-30T11:01:09.760Z,56.7
2023-04-30T11:02:09.729Z,56.7
2023-04-30T11:03:09.804Z,56.7
2023-04-30T11:04:09.783Z,56.7
2023-04-30T11:05:09.789Z,56.7
2023-04-30T11:06:09.792Z,56.7
2023-04-30T11:07:09.788Z,56.7
2023-04-30T11:08:09.737Z,56.7
2023-04-30T11:09:09.758Z,56.7
2023-04-30T11:10:09.729Z,56.7
2023-04-30T11:11:09.742Z,56.7
2023-04-30T11:12:09.745Z,56.7
2023-04-30T11:13:09.772Z,56.7
2023-04-30T11:14:09.744Z,52.3
2023-04-30T11:15:09.739Z,52.3
2023-04-30T11:16:09.804Z,52.3
2023-04-30T11:17:09.778Z,52.3
2023-04-30T11:18:09.891Z,52.3
2023-04-30T11:19:11.535Z,52.3
2023-04-30T11:20:09.717Z,52.3
2023-04-30T11:21:09.758Z,52.3
2023-04-30T11:22:09.766Z,52.3
2023-04-30T11:23:09.748Z,52.3
2023-04-30T11:24:09.757Z,52.3
2023-04-30T11:25:09.801Z,52.3
2023-04-30T11:26:09.809Z,50.3
2023-04-30T11:27:09.759Z,50.3
2023-04-30T11:28:09.744Z,50.3
2023-04-30T11:29:09.821Z,50.3
2023-04-30T11:30:09.775Z,50.3
2023-04-30T11:31:09.846Z,50.3
2023-04-30T11:32:09.791Z,50.3
2023-04-30T11:33:09.794Z,50.3
2023-04-30T11:34:09.735Z,50.3
2023-04-30T11:35:09.736Z,50.3
2023-04-30T11:36:09.771Z,50.3
2023-04-30T11:37:09.818Z,50.3
2023-04-30T11:38:09.780Z,50.3
2023-04-30T11:39:09.820Z,50.3
2023-04-30T11:40:09.814Z,50.3
2023-04-30T11:41:09.778Z,50.3
2023-04-30T11:42:09.776Z,50.3
2023-04-30T11:43:09.790Z,50.3
2023-04-30T11:44:09.781Z,50.3
2023-04-30T11:45:09.778Z,50.3
2023-04-30T11:46:09.882Z,48.4
2023-04-30T11:47:09.838Z,48.4
2023-04-30T11:48:09.901Z,48.4
2023-04-30T11:49:09.792Z,48.4
2023-04-30T11:50:09.826Z,48.4
2023-04-30T11:51:09.805Z,48.4
2023-04-30T11:52:09.784Z,48.4
2023-04-30T11:53:09.821Z,48.4
2023-04-30T11:54:09.786Z,48.4
2023-04-30T11:55:09.789Z,48.4
2023-04-30T11:56:09.801Z,48.4
2023-04-30T11:57:09.801Z,48.4
2023-04-30T11:58:09.813Z,48.4
2023-04-30T11:59:09.827Z,48.4
2023-04-30T12:00:09.773Z,48.7
2023-04-30T12:01:09.932Z,48.7
2023-04-30T12:02:12.272Z,48.7
2023-04-30T12:03:09.923Z,48.7
2023-04-30T12:04:09.964Z,48.7
2023-04-30T12:05:09.840Z,48.7
2023-04-30T12:06:09.900Z,48.7
2023-04-30T12:07:09.878Z,48.7
2023-04-30T12:08:09.878Z,48.7
2023-04-30T12:09:09.833Z,48.7
2023-04-30T12:10:09.858Z,48.7
2023-04-30T12:11:09.838Z,48.7
2023-04-30T12:12:09.831Z,48.7
2023-04-30T12:13:09.835Z,48.7
2023-04-30T12:14:09.869Z,48.1
2023-04-30T12:15:09.890Z,48.1
2023-04-30T12:16:09.849Z,48.1
2023-04-30T12:17:09.834Z,48.1
2023-04-30T12:18:09.952Z,48.1
2023-04-30T12:19:09.876Z,48.4
2023-04-30T12:20:09.847Z,48.4
2023-04-30T12:21:09.856Z,48.4
2023-04-30T12:22:09.861Z,48.4
2023-04-30T12:23:09.890Z,48.4
2023-04-30T12:24:09.858Z,48.4
2023-04-30T12:25:09.894Z,48.4
2023-04-30T12:26:09.905Z,48.4
2023-04-30T12:27:09.884Z,48.4
2023-04-30T12:28:09.895Z,48.4
2023-04-30T12:29:10.460Z,48.4
2023-04-30T12:30:09.892Z,48.4
2023-04-30T12:31:09.883Z,48.4
2023-04-30T12:32:09.935Z,48.4
2023-04-30T12:33:09.973Z,48.4
2023-04-30T12:34:09.886Z,48.4
2023-04-30T12:35:09.955Z,48.4
2023-04-30T12:36:09.931Z,51.9
2023-04-30T12:37:09.918Z,51.9
2023-04-30T12:38:09.977Z,51.9
2023-04-30T12:39:09.930Z,51.9
2023-04-30T12:40:09.935Z,51.9
2023-04-30T12:41:09.937Z,51.9
2023-04-30T12:42:09.939Z,51.9
2023-04-30T12:43:09.928Z,51.9
2023-04-30T12:44:09.928Z,51.9
2023-04-30T12:45:09.940Z,51.9
2023-04-30T12:46:10.031Z,51.9
2023-04-30T12:47:09.982Z,51.9
2023-04-30T12:48:09.992Z,51.9
2023-04-30T12:49:09.963Z,51.9
2023-04-30T12:50:09.938Z,51.9
2023-04-30T12:51:09.952Z,51.9
2023-04-30T12:52:09.992Z,51.9
2023-04-30T12:53:10.009Z,51.9
2023-04-30T12:54:09.952Z,51.9
2023-04-30T12:55:09.995Z,51.9
2023-04-30T12:56:10.005Z,48.7
2023-04-30T12:57:09.974Z,48.7
2023-04-30T12:58:10.026Z,48.7
2023-04-30T12:59:09.975Z,48.7
2023-04-30T13:00:09.988Z,48.7
2023-04-30T13:01:10.025Z,48.7
2023-04-30T13:02:10.025Z,48.7
2023-04-30T13:03:10.109Z,48.7
2023-04-30T13:04:10.069Z,48.7
2023-04-30T13:05:11.557Z,48.7
2023-04-30T13:06:09.996Z,46.7
2023-04-30T13:07:10.022Z,46.7
2023-04-30T13:08:09.992Z,46.7
2023-04-30T13:09:10.000Z,46.7
2023-04-30T13:10:09.993Z,46.7
2023-04-30T13:11:11.506Z,46.7
2023-04-30T13:12:10.008Z,46.7
2023-04-30T13:13:10.023Z,46.7
2023-04-30T13:14:10.001Z,50
2023-04-30T13:15:09.972Z,50
2023-04-30T13:16:10.136Z,50
2023-04-30T13:17:10.020Z,50
2023-04-30T13:18:09.989Z,50
2023-04-30T13:19:10.039Z,50
2023-04-30T13:20:10.039Z,50